Cantil, CA

1:43 PM PST on December 17, 2014 (GMT -0800)
Edwards Air Force Base | Change Station
CLOSE
Current Station
Airport
Location: Edwards AFB,
Elevation: 2313 ft
Nearby Weather Stations

Elev 2313 ft 34.91 °N, 117.88 °W | Updated 45 minutes ago

Mostly Cloudy
Mostly Cloudy
52 °F
Feels Like 52 °F
N
10
Wind Variable Wind from SW

Today
High -- | Low -- °F
--% Chance of Precip.
Yesterday
High -- | Low -- °F
Precip. -- in
6:54 AM 4:41 PM
Waning Crescent, 19% visible
Pressure 30.01 in
Visibility 60.0 miles
Clouds Few 2800 ft
Mostly Cloudy 4800 ft
Mostly Cloudy 20000 ft
Mostly Cloudy 26000 ft
Dew Point 42 °F
Humidity 69%
Rainfall 0.17 in
Snow Depth Not available.
UV 2 out of 12
Pollen 1.50 out of 12
Air Quality Not available.
Flu Activity Not available.
METAR KEDW 172058Z 23009KT 60SM FEW028 BKN048 BKN200 BKN260 11/06 A3001 RMK AO2A SLP162 T01100055 57007

More Conditions Fewer Conditions

Pressure 30.01 in
Visibility 60.0 miles
Clouds Few 2800 ft
Mostly Cloudy 4800 ft
Mostly Cloudy 20000 ft
Mostly Cloudy 26000 ft
Dew Point 42 °F
Humidity 69%
Rainfall 0.17 in
Snow Depth Not available.
UV 2 out of 12
Pollen 1.50 out of 12
Air Quality Not available.
Flu Activity Not available.
METAR KEDW 172058Z 23009KT 60SM FEW028 BKN048 BKN200 BKN260 11/06 A3001 RMK AO2A SLP162 T01100055 57007

More Conditions Fewer Conditions

10-Day Weather Forecast

Almanac

Astronomy

Dec. 17, 2014 Rise Set
Actual Time
Civil Twilight
Nautical Twilight
Astronomical Twilight
Moon
Length of Visible Light
Length of Day
Tomorrow will be .
, % of the Moon is Illuminated

Today's Extremes

State Highs State Lows

Community

WunderPhotos

Upload Photos

1,778,807 photos uploaded!

WunderBlogs® & News

Nearby

Air Quality

  Air Quality AQ Index Pollutant
Not available.

Snow Depth

Station Depth Elevation

Earthquake Activity

City Distance Mag. Time & Date
Minimum magnitude displayed is 2.5.

Coastal Water Temperatures

Place Temperature

Nearby Weather Stations